createdAt,value
2018-01-19T00:00:08.278Z,97.25
2018-01-19T00:01:08.210Z,98.10
2018-01-19T00:02:08.099Z,98.29
2018-01-19T00:03:08.073Z,98.29
2018-01-19T00:04:07.927Z,98.96
2018-01-19T00:05:07.852Z,98.86
2018-01-19T00:06:07.787Z,99.05
2018-01-19T00:07:07.685Z,98.39
2018-01-19T00:08:07.598Z,98.20
2018-01-19T00:09:07.550Z,98.10
2018-01-19T00:10:07.483Z,98.20
2018-01-19T00:11:07.396Z,98.48
2018-01-19T00:12:07.289Z,98.10
2018-01-19T00:13:07.208Z,98.67
2018-01-19T00:14:07.115Z,99.43
2018-01-19T00:15:07.057Z,99.52
2018-01-19T00:16:06.982Z,99.99
2018-01-19T00:17:06.854Z,99.43
2018-01-19T00:18:06.815Z,99.33
2018-01-19T00:19:06.730Z,98.96
2018-01-19T00:20:06.620Z,98.01
2018-01-19T00:21:06.513Z,98.20
2018-01-19T00:22:06.424Z,97.72
2018-01-19T00:23:06.343Z,98.77
2018-01-19T00:24:06.297Z,99.99
2018-01-19T00:25:06.170Z,99.99
2018-01-19T00:26:06.121Z,99.90
2018-01-19T00:27:06.007Z,99.99
2018-01-19T00:28:05.927Z,99.90
2018-01-19T00:29:05.834Z,99.99
2018-01-19T00:30:05.785Z,99.99
2018-01-19T00:31:05.701Z,99.99
2018-01-19T00:32:05.580Z,99.99
2018-01-19T00:33:05.518Z,99.99
2018-01-19T00:34:05.460Z,99.99
2018-01-19T00:35:05.333Z,99.99
2018-01-19T00:36:05.281Z,99.99
2018-01-19T00:37:05.162Z,99.99
2018-01-19T00:38:05.116Z,99.99
2018-01-19T00:39:04.998Z,99.99
2018-01-19T00:40:04.952Z,99.99
2018-01-19T00:41:04.828Z,99.99
2018-01-19T00:42:04.745Z,99.99
2018-01-19T00:43:04.678Z,99.99
2018-01-19T00:44:04.574Z,99.99
2018-01-19T00:45:04.517Z,99.99
2018-01-19T00:46:04.417Z,99.99
2018-01-19T00:47:04.355Z,99.99
2018-01-19T00:48:04.238Z,99.99
2018-01-19T00:49:04.161Z,99.99
2018-01-19T00:50:04.105Z,99.99
2018-01-19T00:51:03.989Z,99.99
2018-01-19T00:52:03.904Z,99.99
2018-01-19T00:53:03.826Z,99.99
2018-01-19T00:54:03.786Z,99.99
2018-01-19T00:55:03.671Z,99.99
2018-01-19T00:56:03.611Z,99.99
2018-01-19T00:57:03.512Z,99.99
2018-01-19T00:58:03.399Z,99.99
2018-01-19T00:59:03.318Z,99.99
2018-01-19T01:00:03.234Z,99.99
2018-01-19T01:01:03.149Z,99.99
2018-01-19T01:02:03.123Z,99.99
2018-01-19T01:03:03.035Z,99.99
2018-01-19T01:04:02.934Z,99.99
2018-01-19T01:05:02.824Z,99.99
2018-01-19T01:06:02.791Z,99.99
2018-01-19T01:07:02.649Z,99.99
2018-01-19T01:08:02.597Z,99.99
2018-01-19T01:09:02.508Z,99.99
2018-01-19T01:10:02.394Z,99.99
2018-01-19T01:11:02.316Z,99.99
2018-01-19T01:12:02.229Z,99.99
2018-01-19T01:13:02.185Z,99.99
2018-01-19T01:14:02.064Z,99.99
2018-01-19T01:15:01.991Z,99.99
2018-01-19T01:16:01.893Z,99.99
2018-01-19T01:17:01.891Z,99.99
2018-01-19T01:18:01.734Z,99.99
2018-01-19T01:19:01.660Z,99.99
2018-01-19T01:20:01.565Z,99.99
2018-01-19T01:21:01.523Z,99.99
2018-01-19T01:22:01.452Z,99.99
2018-01-19T01:23:01.310Z,99.99
2018-01-19T01:24:01.255Z,99.99
2018-01-19T01:25:01.143Z,99.99
2018-01-19T01:26:01.083Z,99.99
2018-01-19T01:27:00.974Z,99.99
2018-01-19T01:28:00.930Z,99.99
2018-01-19T01:29:00.802Z,99.99
2018-01-19T01:30:00.769Z,99.99
2018-01-19T01:31:00.679Z,99.99
2018-01-19T01:32:00.600Z,99.99
2018-01-19T01:33:00.503Z,99.99
2018-01-19T01:34:00.450Z,99.99
2018-01-19T01:35:00.306Z,99.99
2018-01-19T01:36:00.249Z,99.99
2018-01-19T01:37:00.148Z,99.99
2018-01-19T01:38:00.054Z,99.99
2018-01-19T01:38:59.986Z,99.99
2018-01-19T01:39:59.884Z,99.99
2018-01-19T01:40:59.804Z,99.99
2018-01-19T01:41:59.727Z,99.99
2018-01-19T01:42:59.683Z,99.99
2018-01-19T01:43:59.579Z,99.99
2018-01-19T01:44:59.492Z,99.99
2018-01-19T01:45:59.387Z,99.99
2018-01-19T01:46:59.299Z,99.99
2018-01-19T01:47:59.226Z,99.99
2018-01-19T01:48:59.133Z,99.99
2018-01-19T01:49:59.085Z,99.99
2018-01-19T01:50:58.965Z,99.99
2018-01-19T01:51:58.916Z,99.99
2018-01-19T01:52:58.802Z,99.99
2018-01-19T01:53:58.717Z,99.99
2018-01-19T01:54:58.650Z,99.81
2018-01-19T01:55:58.619Z,99.99
2018-01-19T01:56:58.481Z,98.86
2018-01-19T01:57:58.388Z,98.86
2018-01-19T01:58:58.310Z,98.49
2018-01-19T01:59:58.245Z,98.96
2018-01-19T02:00:58.170Z,98.30
2018-01-19T02:01:58.079Z,98.15
2018-01-19T02:02:57.969Z,98.06
2018-01-19T02:03:57.892Z,97.96
2018-01-19T02:04:57.801Z,98.63
2018-01-19T02:05:57.717Z,98.44
2018-01-19T02:06:57.689Z,98.15
2018-01-19T02:07:57.591Z,97.87
2018-01-19T02:08:57.479Z,98.06
2018-01-19T02:09:57.379Z,97.87
2018-01-19T02:10:57.362Z,98.25
2018-01-19T02:11:57.213Z,99.19
2018-01-19T02:12:57.133Z,98.82
2018-01-19T02:13:57.046Z,98.91
2018-01-19T02:14:56.991Z,99.48
2018-01-19T02:15:56.881Z,99.57
2018-01-19T02:16:56.852Z,99.29
2018-01-19T02:17:56.727Z,99.57
2018-01-19T02:18:56.658Z,99.38
2018-01-19T02:19:56.582Z,99.95
2018-01-19T02:20:56.459Z,99.99
2018-01-19T02:21:56.372Z,99.76
2018-01-19T02:22:56.294Z,99.66
2018-01-19T02:23:56.214Z,99.95
2018-01-19T02:24:56.150Z,99.95
2018-01-19T02:25:56.048Z,99.99
2018-01-19T02:26:55.964Z,99.76
2018-01-19T02:27:55.871Z,99.95
2018-01-19T02:28:55.785Z,99.99
2018-01-19T02:29:55.731Z,99.99
2018-01-19T02:30:55.618Z,99.66
2018-01-19T02:31:55.551Z,99.99
2018-01-19T02:32:55.512Z,99.62
2018-01-19T02:33:55.417Z,99.99
2018-01-19T02:34:55.292Z,99.99
2018-01-19T02:35:55.204Z,99.99
2018-01-19T02:36:55.113Z,99.99
2018-01-19T02:37:55.037Z,99.99
2018-01-19T02:38:54.946Z,99.99
2018-01-19T02:39:54.866Z,99.99
2018-01-19T02:40:54.781Z,99.99
2018-01-19T02:41:54.730Z,99.99
2018-01-19T02:42:54.624Z,99.99
2018-01-19T02:43:54.560Z,99.99
2018-01-19T02:44:54.494Z,99.99
2018-01-19T02:45:54.359Z,99.99
2018-01-19T02:46:54.276Z,99.99
2018-01-19T02:47:54.214Z,99.99
2018-01-19T02:48:54.106Z,99.99
2018-01-19T02:49:54.023Z,99.99
2018-01-19T02:50:53.942Z,99.99
2018-01-19T02:51:53.893Z,99.99
2018-01-19T02:52:53.768Z,99.99
2018-01-19T02:53:53.700Z,99.99
2018-01-19T02:54:53.646Z,99.99
2018-01-19T02:55:53.515Z,99.99
2018-01-19T02:56:53.433Z,99.99
2018-01-19T02:57:53.400Z,99.99
2018-01-19T02:58:53.276Z,99.99
2018-01-19T02:59:53.181Z,99.99
2018-01-19T03:00:53.121Z,99.99
2018-01-19T03:01:53.013Z,99.99
2018-01-19T03:02:52.974Z,99.99
2018-01-19T03:03:52.861Z,99.99
2018-01-19T03:04:52.759Z,99.99
2018-01-19T03:05:52.672Z,99.99
2018-01-19T03:06:52.593Z,99.99
2018-01-19T03:07:52.534Z,99.99
2018-01-19T03:08:52.437Z,99.99
2018-01-19T03:09:52.337Z,99.99
2018-01-19T03:10:52.263Z,99.99
2018-01-19T03:11:52.195Z,99.99
2018-01-19T03:12:52.084Z,99.99
2018-01-19T03:13:52.000Z,99.99
2018-01-19T03:14:51.914Z,99.99
2018-01-19T03:15:51.879Z,99.99
2018-01-19T03:16:51.761Z,99.99
2018-01-19T03:17:51.692Z,99.99
2018-01-19T03:18:51.608Z,99.99
2018-01-19T03:19:51.527Z,99.99
2018-01-19T03:20:51.448Z,99.99
2018-01-19T03:21:51.331Z,99.99
2018-01-19T03:22:51.276Z,99.99
2018-01-19T03:23:51.162Z,99.99
2018-01-19T03:24:51.074Z,99.99
2018-01-19T03:25:50.987Z,99.99
2018-01-19T03:26:50.907Z,99.99
2018-01-19T03:27:50.850Z,99.99
2018-01-19T03:28:50.736Z,99.99
2018-01-19T03:29:50.681Z,99.99
2018-01-19T03:30:50.581Z,99.99
2018-01-19T03:31:50.524Z,99.99
2018-01-19T03:32:50.411Z,99.99
2018-01-19T03:33:50.310Z,99.99
2018-01-19T03:34:50.267Z,99.99
2018-01-19T03:35:50.145Z,99.99
2018-01-19T03:36:50.122Z,99.99
2018-01-19T03:37:49.978Z,99.99
2018-01-19T03:38:49.922Z,99.99
2018-01-19T03:39:49.834Z,99.99
2018-01-19T03:40:49.753Z,99.99
2018-01-19T03:41:49.642Z,99.99
2018-01-19T03:42:49.574Z,99.99
2018-01-19T03:43:49.470Z,99.99
2018-01-19T03:44:49.408Z,99.99
2018-01-19T03:45:49.306Z,99.99
2018-01-19T03:46:49.222Z,99.99
2018-01-19T03:47:49.161Z,99.99
2018-01-19T03:48:49.056Z,99.99
2018-01-19T03:49:48.962Z,99.99
2018-01-19T03:50:48.878Z,99.99
2018-01-19T03:51:48.795Z,99.99
2018-01-19T03:52:48.746Z,99.99
2018-01-19T03:53:48.624Z,99.99
2018-01-19T03:54:48.568Z,99.99
2018-01-19T03:55:48.490Z,99.99
2018-01-19T03:56:48.414Z,99.99
2018-01-19T03:57:48.284Z,99.99
2018-01-19T03:58:48.237Z,99.99
2018-01-19T03:59:48.142Z,99.99
2018-01-19T04:00:48.038Z,99.99
2018-01-19T04:01:48.000Z,99.99
2018-01-19T04:02:47.864Z,99.99
2018-01-19T04:03:47.830Z,99.99
2018-01-19T04:04:47.702Z,99.99
2018-01-19T04:05:47.610Z,99.99
2018-01-19T04:06:47.532Z,99.99
2018-01-19T04:07:47.445Z,99.99
2018-01-19T04:08:47.360Z,99.99
2018-01-19T04:09:47.271Z,99.99
2018-01-19T04:10:47.197Z,99.99
2018-01-19T04:11:47.170Z,99.99
2018-01-19T04:12:47.040Z,99.99
2018-01-19T04:13:46.944Z,99.99
2018-01-19T04:14:46.851Z,99.99
2018-01-19T04:15:46.766Z,99.99
2018-01-19T04:16:46.710Z,99.99
2018-01-19T04:17:46.631Z,99.99
2018-01-19T04:18:46.557Z,99.99
2018-01-19T04:19:46.441Z,99.99
2018-01-19T04:20:46.408Z,99.99
2018-01-19T04:21:46.285Z,99.99
2018-01-19T04:22:46.179Z,99.99
2018-01-19T04:23:46.118Z,99.99
2018-01-19T04:24:46.011Z,99.99
2018-01-19T04:25:45.925Z,99.99
2018-01-19T04:26:45.880Z,99.99
2018-01-19T04:27:45.760Z,99.99
2018-01-19T04:28:45.698Z,99.99
2018-01-19T04:29:45.621Z,99.99
2018-01-19T04:30:45.502Z,99.99
2018-01-19T04:31:45.448Z,99.99
2018-01-19T04:32:45.332Z,99.99
2018-01-19T04:33:45.246Z,99.99
2018-01-19T04:34:45.195Z,99.99
2018-01-19T04:35:45.081Z,99.99
2018-01-19T04:36:45.028Z,99.99
2018-01-19T04:37:44.916Z,99.99
2018-01-19T04:38:44.828Z,99.99
2018-01-19T04:39:44.738Z,99.99
2018-01-19T04:40:44.684Z,99.99
2018-01-19T04:41:44.572Z,99.99
2018-01-19T04:42:44.517Z,99.99
2018-01-19T04:43:44.405Z,99.99
2018-01-19T04:44:44.318Z,99.99
2018-01-19T04:45:44.235Z,99.99
2018-01-19T04:46:44.160Z,99.99
2018-01-19T04:47:44.064Z,99.99
2018-01-19T04:48:43.982Z,99.99
2018-01-19T04:49:43.897Z,99.99
2018-01-19T04:50:43.816Z,99.99
2018-01-19T04:51:43.734Z,99.99
2018-01-19T04:52:43.642Z,99.99
2018-01-19T04:53:43.615Z,99.99
2018-01-19T04:54:43.472Z,99.99
2018-01-19T04:55:43.454Z,99.99
2018-01-19T04:56:43.311Z,99.99
2018-01-19T04:57:43.266Z,99.99
2018-01-19T04:58:43.168Z,99.99
2018-01-19T04:59:43.077Z,99.99
2018-01-19T05:00:42.981Z,99.99
2018-01-19T05:01:42.944Z,99.99
2018-01-19T05:02:42.859Z,99.99
2018-01-19T05:03:42.729Z,99.99
2018-01-19T05:04:42.627Z,99.99
2018-01-19T05:05:42.604Z,99.99
2018-01-19T05:06:42.512Z,99.99
2018-01-19T05:07:42.405Z,99.99
2018-01-19T05:08:42.295Z,99.99
2018-01-19T05:09:42.245Z,99.99
2018-01-19T05:10:42.132Z,99.99
2018-01-19T05:11:42.063Z,99.99
2018-01-19T05:12:41.959Z,99.99
2018-01-19T05:13:41.875Z,99.99
2018-01-19T05:14:41.825Z,99.99
2018-01-19T05:15:41.713Z,99.99
2018-01-19T05:16:41.649Z,99.99
2018-01-19T05:17:41.549Z,99.99
2018-01-19T05:18:41.447Z,99.99
2018-01-19T05:19:41.368Z,99.99
2018-01-19T05:20:41.284Z,99.99
2018-01-19T05:21:41.243Z,99.99
2018-01-19T05:22:41.165Z,99.99
2018-01-19T05:23:41.076Z,99.99
2018-01-19T05:24:40.938Z,99.99
2018-01-19T05:25:40.894Z,99.99
2018-01-19T05:26:40.809Z,99.99
2018-01-19T05:27:40.692Z,99.99
2018-01-19T05:28:40.605Z,99.99
2018-01-19T05:29:40.527Z,99.99
2018-01-19T05:30:40.440Z,99.99
2018-01-19T05:31:40.409Z,99.99
2018-01-19T05:32:40.313Z,99.99
2018-01-19T05:33:40.191Z,99.99
2018-01-19T05:34:40.102Z,99.99
2018-01-19T05:35:40.013Z,99.99
2018-01-19T05:36:39.928Z,99.99
2018-01-19T05:37:39.902Z,99.99
2018-01-19T05:38:39.827Z,99.99
2018-01-19T05:39:39.680Z,99.99
2018-01-19T05:40:39.627Z,99.99
2018-01-19T05:41:39.540Z,99.99
2018-01-19T05:42:39.422Z,99.99
2018-01-19T05:43:39.345Z,99.99
2018-01-19T05:44:39.498Z,99.99
2018-01-19T05:45:39.175Z,99.99
2018-01-19T05:46:39.099Z,99.99
2018-01-19T05:47:39.008Z,99.99
2018-01-19T05:48:38.929Z,99.99
2018-01-19T05:49:38.861Z,99.99
2018-01-19T05:50:38.772Z,99.99
2018-01-19T05:51:38.735Z,99.99
2018-01-19T05:52:38.588Z,99.99
2018-01-19T05:53:38.539Z,99.99
2018-01-19T05:54:38.450Z,99.99
2018-01-19T05:55:38.368Z,99.99
2018-01-19T05:56:38.282Z,99.99
2018-01-19T05:57:38.189Z,99.99
2018-01-19T05:58:38.106Z,99.99
2018-01-19T05:59:38.055Z,99.99
2018-01-19T06:00:38.004Z,99.99
2018-01-19T06:01:37.834Z,99.99
2018-01-19T06:02:37.824Z,99.99
2018-01-19T06:03:37.711Z,99.99
2018-01-19T06:04:37.693Z,99.99
2018-01-19T06:05:37.609Z,99.99
2018-01-19T06:06:37.433Z,99.99
2018-01-19T06:07:37.338Z,99.99
2018-01-19T06:08:37.278Z,99.99
2018-01-19T06:09:37.175Z,99.99
2018-01-19T06:10:37.202Z,99.99
2018-01-19T06:11:36.985Z,99.99
2018-01-19T06:12:36.980Z,99.99
2018-01-19T06:13:36.922Z,99.99
2018-01-19T06:14:36.775Z,99.99
2018-01-19T06:15:37.103Z,99.99
2018-01-19T06:16:36.652Z,99.90
2018-01-19T06:17:36.623Z,99.90
2018-01-19T06:18:36.480Z,99.99
2018-01-19T06:19:36.353Z,99.99
2018-01-19T06:20:36.318Z,99.99
2018-01-19T06:21:36.250Z,99.99
2018-01-19T06:22:36.130Z,99.99
2018-01-19T06:23:36.000Z,99.62
2018-01-19T06:24:35.958Z,99.81
2018-01-19T06:25:35.844Z,99.71
2018-01-19T06:26:35.832Z,99.99
2018-01-19T06:27:35.648Z,99.95
2018-01-19T06:28:35.563Z,99.81
2018-01-19T06:29:35.502Z,99.99
2018-01-19T06:30:35.460Z,99.52
2018-01-19T06:31:35.381Z,99.33
2018-01-19T06:32:35.265Z,99.33
2018-01-19T06:33:35.182Z,99.99
2018-01-19T06:34:35.062Z,99.99
2018-01-19T06:35:34.993Z,99.99
2018-01-19T06:36:34.978Z,99.81
2018-01-19T06:37:34.804Z,99.66
2018-01-19T06:38:34.801Z,99.85
2018-01-19T06:39:34.666Z,99.90
2018-01-19T06:40:34.657Z,99.99
2018-01-19T06:41:34.457Z,99.95
2018-01-19T06:42:34.400Z,99.99
2018-01-19T06:43:34.348Z,99.66
2018-01-19T06:44:34.251Z,99.81
2018-01-19T06:45:34.162Z,99.62
2018-01-19T06:46:34.126Z,99.66
2018-01-19T06:47:33.987Z,99.99
2018-01-19T06:48:33.880Z,99.62
2018-01-19T06:49:33.852Z,99.66
2018-01-19T06:50:33.773Z,99.99
2018-01-19T06:51:33.714Z,99.76
2018-01-19T06:52:33.570Z,99.95
2018-01-19T06:53:33.496Z,99.99
2018-01-19T06:54:33.402Z,99.85
2018-01-19T06:55:33.322Z,99.66
2018-01-19T06:56:33.211Z,99.81
2018-01-19T06:57:33.176Z,99.66
2018-01-19T06:58:33.125Z,99.81
2018-01-19T06:59:33.027Z,99.99
2018-01-19T07:00:32.915Z,99.66
2018-01-19T07:01:32.895Z,99.57
2018-01-19T07:02:32.688Z,99.99
2018-01-19T07:03:32.702Z,99.85
2018-01-19T07:04:32.557Z,99.99
2018-01-19T07:05:32.514Z,99.85
2018-01-19T07:06:32.396Z,99.99
2018-01-19T07:07:32.379Z,99.76
2018-01-19T07:08:32.252Z,99.99
2018-01-19T07:09:32.155Z,99.99
2018-01-19T07:10:32.097Z,99.95
2018-01-19T07:11:31.981Z,99.99
2018-01-19T07:12:31.965Z,99.99
2018-01-19T07:13:31.840Z,99.99
2018-01-19T07:14:31.731Z,99.99
2018-01-19T07:15:31.664Z,99.99
2018-01-19T07:16:31.534Z,99.76
2018-01-19T07:17:31.488Z,99.85
2018-01-19T07:18:31.389Z,99.99
2018-01-19T07:19:31.310Z,99.85
2018-01-19T07:20:31.281Z,99.29
2018-01-19T07:21:31.134Z,99.38
2018-01-19T07:22:31.010Z,99.38
2018-01-19T07:23:30.940Z,99.38
2018-01-19T07:24:30.879Z,99.38
2018-01-19T07:25:30.797Z,99.48
2018-01-19T07:26:30.745Z,99.38
2018-01-19T07:27:30.606Z,99.48
2018-01-19T07:28:30.546Z,99.48
2018-01-19T07:29:30.481Z,99.85
2018-01-19T07:30:30.436Z,99.48
2018-01-19T07:31:30.326Z,99.29
2018-01-19T07:32:30.240Z,99.57
2018-01-19T07:33:30.150Z,99.66
2018-01-19T07:34:29.995Z,99.19
2018-01-19T07:35:30.004Z,99.01
2018-01-19T07:36:29.868Z,98.91
2018-01-19T07:37:29.780Z,99.01
2018-01-19T07:38:29.765Z,98.91
2018-01-19T07:39:29.601Z,99.01
2018-01-19T07:40:29.506Z,99.05
2018-01-19T07:41:29.432Z,98.30
2018-01-19T07:42:29.395Z,98.11
2018-01-19T07:43:29.280Z,98.39
2018-01-19T07:44:29.240Z,98.30
2018-01-19T07:45:29.141Z,97.63
2018-01-19T07:46:29.033Z,97.82
2018-01-19T07:47:29.034Z,97.73
2018-01-19T07:48:28.888Z,97.82
2018-01-19T07:49:28.766Z,97.73
2018-01-19T07:50:28.704Z,97.16
2018-01-19T07:51:28.605Z,97.44
2018-01-19T07:52:28.552Z,96.88
2018-01-19T07:53:28.459Z,96.88
2018-01-19T07:54:28.380Z,96.12
2018-01-19T07:55:28.340Z,96.69
2018-01-19T07:56:28.195Z,96.69
2018-01-19T07:57:28.094Z,96.40
2018-01-19T07:58:28.057Z,96.88
2018-01-19T07:59:27.927Z,96.59
2018-01-19T08:00:27.875Z,96.88
2018-01-19T08:01:27.805Z,96.97
2018-01-19T08:02:27.693Z,97.35
2018-01-19T08:03:27.575Z,97.35
2018-01-19T08:04:27.490Z,97.54
2018-01-19T08:05:27.448Z,96.97
2018-01-19T08:06:27.318Z,97.16
2018-01-19T08:07:27.262Z,96.69
2018-01-19T08:08:27.205Z,97.16
2018-01-19T08:09:27.084Z,97.16
2018-01-19T08:10:27.042Z,97.44
2018-01-19T08:11:26.938Z,97.16
2018-01-19T08:12:26.897Z,97.35
2018-01-19T08:13:26.805Z,97.16
2018-01-19T08:14:26.713Z,96.78
2018-01-19T08:15:26.633Z,96.21
2018-01-19T08:16:26.636Z,95.83
2018-01-19T08:17:26.420Z,95.93
2018-01-19T08:18:26.343Z,95.26
2018-01-19T08:19:26.266Z,95.93
2018-01-19T08:20:26.226Z,94.93
2018-01-19T08:21:26.091Z,95.31
2018-01-19T08:22:26.065Z,95.12
2018-01-19T08:23:25.986Z,94.46
2018-01-19T08:24:25.822Z,93.89
2018-01-19T08:25:25.800Z,93.23
2018-01-19T08:26:25.640Z,92.52
2018-01-19T08:27:25.591Z,91.47
2018-01-19T08:28:25.558Z,91.57
2018-01-19T08:29:25.493Z,90.72
2018-01-19T08:30:25.496Z,90.62
2018-01-19T08:31:25.280Z,90.10
2018-01-19T08:32:25.218Z,89.62
2018-01-19T08:33:25.047Z,88.58
2018-01-19T08:34:25.032Z,88.29
2018-01-19T08:35:24.926Z,88.01
2018-01-19T08:36:24.828Z,87.54
2018-01-19T08:37:24.756Z,86.87
2018-01-19T08:38:24.696Z,86.78
2018-01-19T08:39:24.637Z,86.07
2018-01-19T08:40:24.552Z,85.68
2018-01-19T08:41:24.439Z,85.49
2018-01-19T08:42:24.338Z,86.02
2018-01-19T08:43:24.266Z,85.74
2018-01-19T08:44:24.156Z,85.64
2018-01-19T08:45:24.100Z,86.30
2018-01-19T08:46:24.034Z,87.16
2018-01-19T08:47:23.911Z,87.06
2018-01-19T08:48:23.862Z,87.59
2018-01-19T08:49:23.703Z,88.06
2018-01-19T08:50:23.711Z,88.54
2018-01-19T08:51:23.569Z,88.54
2018-01-19T08:52:23.529Z,89.58
2018-01-19T08:53:23.442Z,90.05
2018-01-19T08:54:23.374Z,90.15
2018-01-19T08:55:23.225Z,90.24
2018-01-19T08:56:23.238Z,90.67
2018-01-19T08:57:23.105Z,90.48
2018-01-19T08:58:23.062Z,91.33
2018-01-19T08:59:22.928Z,91.71
2018-01-19T09:00:22.858Z,91.62
2018-01-19T09:01:22.740Z,91.52
2018-01-19T09:02:22.627Z,91.52
2018-01-19T09:03:22.568Z,92.38
2018-01-19T09:04:22.528Z,92.28
2018-01-19T09:05:22.366Z,91.71
2018-01-19T09:06:22.298Z,92.09
2018-01-19T09:07:22.250Z,92.57
2018-01-19T09:08:22.211Z,92.38
2018-01-19T09:09:22.110Z,92.71
2018-01-19T09:10:21.972Z,92.99
2018-01-19T09:11:21.916Z,92.42
2018-01-19T09:12:21.817Z,91.19
2018-01-19T09:13:21.791Z,89.67
2018-01-19T09:14:21.622Z,89.77
2018-01-19T09:15:21.541Z,89.58
2018-01-19T09:16:21.499Z,89.58
2018-01-19T09:17:21.371Z,89.58
2018-01-19T09:18:21.336Z,89.20
2018-01-19T09:19:21.211Z,88.73
2018-01-19T09:20:21.128Z,89.11
2018-01-19T09:21:21.105Z,88.63
2018-01-19T09:22:20.943Z,88.68
2018-01-19T09:23:20.908Z,88.87
2018-01-19T09:24:20.775Z,88.20
2018-01-19T09:25:20.730Z,89.25
2018-01-19T09:26:20.655Z,88.68
2018-01-19T09:27:20.571Z,86.78
2018-01-19T09:28:20.485Z,86.97
2018-01-19T09:29:20.366Z,86.40
2018-01-19T09:30:20.295Z,86.68
2018-01-19T09:31:20.203Z,86.74
2018-01-19T09:32:20.178Z,86.45
2018-01-19T09:33:20.060Z,86.83
2018-01-19T09:34:19.957Z,86.35
2018-01-19T09:35:19.877Z,86.35
2018-01-19T09:36:19.792Z,87.02
2018-01-19T09:37:19.704Z,87.87
2018-01-19T09:38:19.625Z,88.54
2018-01-19T09:39:19.561Z,88.82
2018-01-19T09:40:19.453Z,88.82
2018-01-19T09:41:19.395Z,89.11
2018-01-19T09:42:19.286Z,88.87
2018-01-19T09:43:19.208Z,89.34
2018-01-19T09:44:19.122Z,89.53
2018-01-19T09:45:19.073Z,90.29
2018-01-19T09:46:18.968Z,90.29
2018-01-19T09:47:18.893Z,91.14
2018-01-19T09:48:18.790Z,91.62
2018-01-19T09:49:18.712Z,91.33
2018-01-19T09:50:18.646Z,91.71
2018-01-19T09:51:18.546Z,92.28
2018-01-19T09:52:18.491Z,92.57
2018-01-19T09:53:18.399Z,92.66
2018-01-19T09:54:18.294Z,92.19
2018-01-19T09:55:18.208Z,91.90
2018-01-19T09:56:18.149Z,92.00
2018-01-19T09:57:18.047Z,92.09
2018-01-19T09:58:17.976Z,92.28
2018-01-19T09:59:17.879Z,92.57
2018-01-19T10:00:17.788Z,92.09
2018-01-19T10:01:17.708Z,92.57
2018-01-19T10:02:17.662Z,92.38
2018-01-19T10:03:17.588Z,92.19
2018-01-19T10:04:17.461Z,92.38
2018-01-19T10:05:17.387Z,92.38
2018-01-19T10:06:17.354Z,92.57
2018-01-19T10:07:17.235Z,93.04
2018-01-19T10:08:17.174Z,93.13
2018-01-19T10:09:17.062Z,93.51
2018-01-19T10:10:16.958Z,93.04
2018-01-19T10:11:16.874Z,93.42
2018-01-19T10:12:16.789Z,93.51
2018-01-19T10:13:16.746Z,93.13
2018-01-19T10:14:16.624Z,92.85
2018-01-19T10:15:16.574Z,92.85
2018-01-19T10:16:16.516Z,93.13
2018-01-19T10:17:16.377Z,93.80
2018-01-19T10:18:16.287Z,93.51
2018-01-19T10:19:16.211Z,93.13
2018-01-19T10:20:16.122Z,93.13
2018-01-19T10:21:16.080Z,92.66
2018-01-19T10:22:15.956Z,92.38
2018-01-19T10:23:15.908Z,91.52
2018-01-19T10:24:15.812Z,92.19
2018-01-19T10:25:15.708Z,91.52
2018-01-19T10:26:15.624Z,90.86
2018-01-19T10:27:15.551Z,90.77
2018-01-19T10:28:15.459Z,91.14
2018-01-19T10:29:15.397Z,91.14
2018-01-19T10:30:15.317Z,91.05
2018-01-19T10:31:15.217Z,90.95
2018-01-19T10:32:15.124Z,91.24
2018-01-19T10:33:15.037Z,91.43
2018-01-19T10:34:14.974Z,90.95
2018-01-19T10:35:14.870Z,91.05
2018-01-19T10:36:14.797Z,91.43
2018-01-19T10:37:14.700Z,91.14
2018-01-19T10:38:14.643Z,91.52
2018-01-19T10:39:14.570Z,91.52
2018-01-19T10:40:14.462Z,91.14
2018-01-19T10:41:14.376Z,91.62
2018-01-19T10:42:14.294Z,91.24
2018-01-19T10:43:14.255Z,89.82
2018-01-19T10:44:14.130Z,90.86
2018-01-19T10:45:14.041Z,90.67
2018-01-19T10:46:14.015Z,90.58
2018-01-19T10:47:13.872Z,91.05
2018-01-19T10:48:13.786Z,91.05
2018-01-19T10:49:13.720Z,90.48
2018-01-19T10:50:13.627Z,90.10
2018-01-19T10:51:13.542Z,90.01
2018-01-19T10:52:13.450Z,89.91
2018-01-19T10:53:13.378Z,89.72
2018-01-19T10:54:13.322Z,89.53
2018-01-19T10:55:13.212Z,89.53
2018-01-19T10:56:13.199Z,89.53
2018-01-19T10:57:13.042Z,89.15
2018-01-19T10:58:12.967Z,88.96
2018-01-19T10:59:12.929Z,89.06
2018-01-19T11:00:12.810Z,88.63
2018-01-19T11:01:12.715Z,88.73
2018-01-19T11:02:12.647Z,89.11
2018-01-19T11:03:12.582Z,88.73
2018-01-19T11:04:12.451Z,87.97
2018-01-19T11:05:12.367Z,87.77
2018-01-19T11:06:12.332Z,87.77
2018-01-19T11:07:12.242Z,88.16
2018-01-19T11:08:12.119Z,87.59
2018-01-19T11:09:12.040Z,87.97
2018-01-19T11:10:11.969Z,87.77
2018-01-19T11:11:11.894Z,87.77
2018-01-19T11:12:11.820Z,88.06
2018-01-19T11:13:11.734Z,87.40
2018-01-19T11:14:11.637Z,87.40
2018-01-19T11:15:11.536Z,86.88
2018-01-19T11:16:11.460Z,86.88
2018-01-19T11:17:11.374Z,86.69
2018-01-19T11:18:11.283Z,86.83
2018-01-19T11:19:11.203Z,86.93
2018-01-19T11:20:11.179Z,85.55
2018-01-19T11:21:11.044Z,86.16
2018-01-19T11:22:10.951Z,86.93
2018-01-19T11:23:10.867Z,86.45
2018-01-19T11:24:10.813Z,87.02
2018-01-19T11:25:10.738Z,86.45
2018-01-19T11:26:10.629Z,86.93
2018-01-19T11:27:10.542Z,87.30
2018-01-19T11:28:10.452Z,86.64
2018-01-19T11:29:10.369Z,85.60
2018-01-19T11:30:10.286Z,85.50
2018-01-19T11:31:10.230Z,84.94
2018-01-19T11:32:10.146Z,84.36
2018-01-19T11:33:10.060Z,84.94
2018-01-19T11:34:09.954Z,84.94
2018-01-19T11:35:09.871Z,84.36
2018-01-19T11:36:09.792Z,84.27
2018-01-19T11:37:09.769Z,84.17
2018-01-19T11:38:09.630Z,83.98
2018-01-19T11:39:09.536Z,85.22
2018-01-19T11:40:09.485Z,85.41
2018-01-19T11:41:09.414Z,85.60
2018-01-19T11:42:09.328Z,85.50
2018-01-19T11:43:09.200Z,85.41
2018-01-19T11:44:09.118Z,84.74
2018-01-19T11:45:09.056Z,84.46
2018-01-19T11:46:08.999Z,84.55
2018-01-19T11:47:08.963Z,84.94
2018-01-19T11:48:08.850Z,85.41
2018-01-19T11:49:08.734Z,84.94
2018-01-19T11:50:08.703Z,84.94
2018-01-19T11:51:08.536Z,85.03
2018-01-19T11:52:08.487Z,84.65
2018-01-19T11:53:08.434Z,84.84
2018-01-19T11:54:08.288Z,84.65
2018-01-19T11:55:08.304Z,85.22
2018-01-19T11:56:08.120Z,84.74
2018-01-19T11:57:08.066Z,85.03
2018-01-19T11:58:07.970Z,84.74
2018-01-19T11:59:07.869Z,84.08
2018-01-19T12:00:07.812Z,83.80
2018-01-19T12:01:07.731Z,83.61
2018-01-19T12:02:07.623Z,82.75
2018-01-19T12:03:07.536Z,82.85
2018-01-19T12:04:07.461Z,82.85
2018-01-19T12:05:07.385Z,83.61
2018-01-19T12:06:07.291Z,83.61
2018-01-19T12:07:07.275Z,83.98
2018-01-19T12:08:07.183Z,83.75
2018-01-19T12:09:07.044Z,84.32
2018-01-19T12:10:06.988Z,84.42
2018-01-19T12:11:06.902Z,84.04
2018-01-19T12:12:06.853Z,83.94
2018-01-19T12:13:06.760Z,84.04
2018-01-19T12:14:06.628Z,83.85
2018-01-19T12:15:06.540Z,84.04
2018-01-19T12:16:06.457Z,83.94
2018-01-19T12:17:06.400Z,84.13
2018-01-19T12:18:06.307Z,83.66
2018-01-19T12:19:06.221Z,84.23
2018-01-19T12:20:06.185Z,83.75
2018-01-19T12:21:06.106Z,83.94
2018-01-19T12:22:05.990Z,82.90
2018-01-19T12:23:05.899Z,83.18
2018-01-19T12:24:05.797Z,83.09
2018-01-19T12:25:05.741Z,83.09
2018-01-19T12:26:05.632Z,82.33
2018-01-19T12:27:05.539Z,82.43
2018-01-19T12:28:05.459Z,82.05
2018-01-19T12:29:05.405Z,83.28
2018-01-19T12:30:05.294Z,84.04
2018-01-19T12:31:05.203Z,83.09
2018-01-19T12:32:05.146Z,83.09
2018-01-19T12:33:05.086Z,83.47
2018-01-19T12:34:04.984Z,83.28
2018-01-19T12:35:04.882Z,82.43
2018-01-19T12:36:04.814Z,81.67
2018-01-19T12:37:04.707Z,81.95
2018-01-19T12:38:04.626Z,82.71
2018-01-19T12:39:04.575Z,82.90
2018-01-19T12:40:04.456Z,82.43
2018-01-19T12:41:04.387Z,82.24
2018-01-19T12:42:04.306Z,83.18
2018-01-19T12:43:04.244Z,83.47
2018-01-19T12:44:04.132Z,82.43
2018-01-19T12:45:04.095Z,81.67
2018-01-19T12:46:03.979Z,81.57
2018-01-19T12:47:03.903Z,81.76
2018-01-19T12:48:03.817Z,82.43
2018-01-19T12:49:03.757Z,82.24
2018-01-19T12:50:03.652Z,82.52
2018-01-19T12:51:03.538Z,82.90